Terminal Aerodrome Forecast
Issued by NWS Tallahassee, FL

Home | Current Version | Previous Version | Text Only | Print | Product List | Glossary On
Versions: 1 2 3 4 5 6 7 8 9 10 11 12
000
FTUS42 KTAE 290524
TAFTLH
TAF
KTLH 290524Z 2906/3006 VRB03KT P6SM SKC
     FM291800 28005KT P6SM VCTS SCT030CB
      TEMPO 2921/3001 VRB15G25KT 2SM +TSRA BKN030CB
     FM300100 21007KT P6SM SCT030=

USA.gov is the U.S. government's official web portal to all federal, state and local government web resources and services.